createdAt,value
2018-05-11T00:02:13.603Z,8.60
2018-05-11T00:04:41.119Z,8.60
2018-05-11T00:07:08.628Z,8.50
2018-05-11T00:09:36.149Z,8.50
2018-05-11T00:12:03.665Z,8.50
2018-05-11T00:14:31.179Z,8.50
2018-05-11T00:16:59.437Z,8.40
2018-05-11T00:19:27.014Z,8.50
2018-05-11T00:21:54.455Z,8.50
2018-05-11T00:24:22.931Z,8.40
2018-05-11T00:26:50.442Z,8.40
2018-05-11T00:29:17.970Z,8.40
2018-05-11T00:31:45.470Z,8.30
2018-05-11T00:34:12.965Z,8.40
2018-05-11T00:36:40.438Z,8.30
2018-05-11T00:39:07.933Z,8.30
2018-05-11T00:41:35.851Z,8.20
2018-05-11T00:44:03.359Z,8.20
2018-05-11T00:46:30.911Z,8.10
2018-05-11T00:48:58.324Z,8.00
2018-05-11T00:51:26.080Z,7.90
2018-05-11T00:53:53.567Z,7.90
2018-05-11T00:56:21.088Z,7.70
2018-05-11T00:58:49.375Z,7.60
2018-05-11T01:01:16.893Z,7.60
2018-05-11T01:03:44.395Z,7.50
2018-05-11T01:06:12.635Z,7.50
2018-05-11T01:08:40.228Z,7.50
2018-05-11T01:11:07.735Z,7.60
2018-05-11T01:13:35.213Z,7.60
2018-05-11T01:16:02.727Z,7.60
2018-05-11T01:18:30.197Z,7.70
2018-05-11T01:20:57.687Z,7.70
2018-05-11T01:23:25.168Z,7.70
2018-05-11T01:25:52.923Z,7.70
2018-05-11T01:28:20.482Z,7.70
2018-05-11T01:30:47.955Z,7.70
2018-05-11T01:33:15.505Z,7.70
2018-05-11T01:35:43.001Z,7.70
2018-05-11T01:38:10.555Z,7.60
2018-05-11T01:40:38.383Z,7.60
2018-05-11T01:43:06.646Z,7.60
2018-05-11T01:45:34.116Z,7.60
2018-05-11T01:48:02.381Z,7.50
2018-05-11T01:50:31.323Z,7.50
2018-05-11T01:52:58.833Z,7.50
2018-05-11T01:55:26.343Z,7.50
2018-05-11T01:57:53.820Z,7.50
2018-05-11T02:00:21.325Z,7.50
2018-05-11T02:02:48.819Z,7.50
2018-05-11T02:05:16.344Z,7.50
2018-05-11T02:07:44.332Z,7.40
2018-05-11T02:10:11.823Z,7.40
2018-05-11T02:12:40.074Z,7.40
2018-05-11T02:15:07.582Z,7.40
2018-05-11T02:17:35.858Z,7.30
2018-05-11T02:20:03.317Z,7.30
2018-05-11T02:22:30.897Z,7.20
2018-05-11T02:24:58.358Z,7.20
2018-05-11T02:27:25.889Z,7.20
2018-05-11T02:29:54.160Z,7.30
2018-05-11T02:32:22.604Z,7.30
2018-05-11T02:34:50.086Z,7.30
2018-05-11T02:37:17.709Z,7.30
2018-05-11T02:39:45.246Z,7.30
2018-05-11T02:42:13.501Z,7.10
2018-05-11T02:44:40.972Z,7.10
2018-05-11T02:47:08.685Z,7.00
2018-05-11T02:49:36.176Z,6.90
2018-05-11T02:52:03.655Z,6.90
2018-05-11T02:54:32.024Z,6.90
2018-05-11T02:56:59.556Z,6.90
2018-05-11T02:59:27.127Z,6.90
2018-05-11T03:01:54.597Z,6.90
2018-05-11T03:04:22.157Z,6.70
2018-05-11T03:06:49.607Z,6.60
2018-05-11T03:09:17.162Z,6.70
2018-05-11T03:11:45.435Z,6.80
2018-05-11T03:14:12.960Z,6.80
2018-05-11T03:16:40.414Z,6.70
2018-05-11T03:19:07.933Z,6.70
2018-05-11T03:21:35.488Z,6.80
2018-05-11T03:24:03.734Z,6.90
2018-05-11T03:26:31.242Z,6.80
2018-05-11T03:28:58.728Z,6.80
2018-05-11T03:31:26.593Z,6.80
2018-05-11T03:33:54.088Z,6.80
2018-05-11T03:36:21.530Z,6.80
2018-05-11T03:38:49.067Z,6.80
2018-05-11T03:41:16.619Z,6.90
2018-05-11T03:43:44.051Z,6.90
2018-05-11T03:46:11.549Z,6.90
2018-05-11T03:48:39.014Z,6.80
2018-05-11T03:51:06.512Z,6.70
2018-05-11T03:53:34.039Z,6.60
2018-05-11T03:56:01.568Z,6.70
2018-05-11T03:58:29.059Z,6.80
2018-05-11T04:00:56.519Z,6.90
2018-05-11T04:03:24.031Z,6.90
2018-05-11T04:05:51.820Z,6.90
2018-05-11T04:08:19.280Z,6.90
2018-05-11T04:10:46.756Z,7.00
2018-05-11T04:13:14.350Z,7.10
2018-05-11T04:15:41.795Z,7.20
2018-05-11T04:18:10.034Z,7.50
2018-05-11T04:20:37.538Z,7.50
2018-05-11T04:23:04.998Z,7.70
2018-05-11T04:25:33.356Z,7.90
2018-05-11T04:28:00.823Z,7.90
2018-05-11T04:30:28.354Z,8.20
2018-05-11T04:32:55.837Z,8.50
2018-05-11T04:35:24.406Z,8.80
2018-05-11T04:37:52.974Z,9.50
2018-05-11T04:40:20.391Z,9.50
2018-05-11T04:42:47.894Z,9.80
2018-05-11T04:45:15.428Z,9.90
2018-05-11T04:47:42.936Z,9.80
2018-05-11T04:50:11.393Z,9.50
2018-05-11T04:52:38.914Z,9.40
2018-05-11T04:55:06.369Z,9.30
2018-05-11T04:57:33.888Z,9.30
2018-05-11T05:00:01.410Z,9.30
2018-05-11T05:02:28.962Z,9.30
2018-05-11T05:04:56.415Z,9.30
2018-05-11T05:07:23.942Z,9.40
2018-05-11T05:09:51.436Z,9.50
2018-05-11T05:12:19.024Z,9.60
2018-05-11T05:14:46.726Z,9.70
2018-05-11T05:17:14.990Z,9.90
2018-05-11T05:19:43.259Z,10.00
2018-05-11T05:22:10.745Z,10.00
2018-05-11T05:24:39.003Z,10.20
2018-05-11T05:27:06.539Z,10.20
2018-05-11T05:29:34.046Z,10.30
2018-05-11T05:32:01.560Z,10.40
2018-05-11T05:34:29.157Z,10.40
2018-05-11T05:36:56.574Z,10.40
2018-05-11T05:39:24.083Z,10.30
2018-05-11T05:41:51.627Z,10.30
2018-05-11T05:44:19.192Z,10.40
2018-05-11T05:46:47.484Z,10.50
2018-05-11T05:49:14.964Z,10.50
2018-05-11T05:51:42.542Z,10.50
2018-05-11T05:54:10.033Z,10.60
2018-05-11T05:56:37.528Z,10.70
2018-05-11T05:59:05.054Z,10.70
2018-05-11T06:01:32.511Z,10.60
2018-05-11T06:04:00.020Z,10.50
2018-05-11T06:06:27.535Z,10.50
2018-05-11T06:08:55.844Z,10.70
2018-05-11T06:11:24.087Z,10.70
2018-05-11T06:13:52.356Z,10.80
2018-05-11T06:16:19.793Z,10.70
2018-05-11T06:18:47.332Z,10.80
2018-05-11T06:21:14.863Z,11.00
2018-05-11T06:23:42.343Z,11.00
2018-05-11T06:26:09.862Z,11.20
2018-05-11T06:28:37.400Z,11.20
2018-05-11T06:31:04.985Z,11.10
2018-05-11T06:33:32.496Z,11.20
2018-05-11T06:36:00.782Z,11.20
2018-05-11T06:38:28.316Z,11.20
2018-05-11T06:40:55.827Z,11.20
2018-05-11T06:43:23.368Z,11.30
2018-05-11T06:45:52.623Z,11.30
2018-05-11T06:48:20.836Z,11.50
2018-05-11T06:50:49.206Z,11.40
2018-05-11T06:53:17.462Z,11.40
2018-05-11T06:55:44.986Z,11.50
2018-05-11T06:58:13.189Z,11.70
2018-05-11T07:00:41.317Z,11.70
2018-05-11T07:03:08.747Z,11.60
2018-05-11T07:05:36.277Z,11.30
2018-05-11T07:08:03.878Z,11.10
2018-05-11T07:10:31.305Z,11.30
2018-05-11T07:12:58.779Z,11.20
2018-05-11T07:15:26.318Z,11.40
2018-05-11T07:17:53.877Z,11.70
2018-05-11T07:20:21.369Z,11.70
2018-05-11T07:22:48.931Z,12.00
2018-05-11T07:25:16.401Z,12.10
2018-05-11T07:27:43.938Z,12.10
2018-05-11T07:30:11.532Z,13.00
2018-05-11T07:32:39.378Z,13.60
2018-05-11T07:35:06.877Z,15.10
2018-05-11T07:37:34.400Z,16.30
2018-05-11T07:40:01.948Z,14.90
2018-05-11T07:42:29.417Z,13.80
2018-05-11T07:44:57.093Z,13.60
2018-05-11T07:47:24.639Z,13.60
2018-05-11T07:49:52.174Z,13.80
2018-05-11T07:52:19.698Z,13.90
2018-05-11T07:54:47.509Z,14.20
2018-05-11T07:57:14.970Z,13.90
2018-05-11T07:59:42.478Z,15.30
2018-05-11T08:02:09.958Z,15.70
2018-05-11T08:04:37.556Z,15.00
2018-05-11T08:07:05.057Z,14.70
2018-05-11T08:09:32.607Z,14.50
2018-05-11T08:12:00.916Z,14.30
2018-05-11T08:14:28.448Z,14.30
2018-05-11T08:16:56.679Z,14.40
2018-05-11T08:19:24.960Z,14.40
2018-05-11T08:21:52.576Z,14.40
2018-05-11T08:24:20.892Z,15.30
2018-05-11T08:26:48.570Z,15.30
2018-05-11T08:29:15.988Z,15.80
2018-05-11T08:31:43.467Z,15.90
2018-05-11T08:34:11.025Z,15.70
2018-05-11T08:36:39.315Z,15.30
2018-05-11T08:39:06.811Z,15.30
2018-05-11T08:41:34.311Z,15.70
2018-05-11T08:44:01.814Z,16.10
2018-05-11T08:46:29.311Z,16.10
2018-05-11T08:48:56.904Z,16.20
2018-05-11T08:51:24.471Z,15.60
2018-05-11T08:53:52.044Z,15.20
2018-05-11T08:56:20.219Z,15.30
2018-05-11T08:58:47.650Z,15.50
2018-05-11T09:01:15.197Z,15.80
2018-05-11T09:03:43.425Z,16.50
2018-05-11T09:06:10.993Z,16.50
2018-05-11T09:08:38.680Z,16.30
2018-05-11T09:11:06.174Z,17.20
2018-05-11T09:13:33.758Z,18.60
2018-05-11T09:16:01.315Z,18.90
2018-05-11T09:18:28.925Z,18.20
2018-05-11T09:20:57.232Z,18.50
2018-05-11T09:23:24.768Z,18.50
2018-05-11T09:25:53.031Z,17.60
2018-05-11T09:28:20.591Z,17.60
2018-05-11T09:30:48.161Z,17.10
2018-05-11T09:33:15.714Z,16.50
2018-05-11T09:35:43.647Z,16.30
2018-05-11T09:38:13.549Z,16.10
2018-05-11T09:40:44.006Z,16.10
2018-05-11T09:43:11.692Z,15.90
2018-05-11T09:45:39.202Z,15.90
2018-05-11T09:48:07.472Z,16.80
2018-05-11T09:50:35.042Z,16.70
2018-05-11T09:53:02.441Z,16.90
2018-05-11T09:55:30.859Z,16.10
2018-05-11T09:57:58.715Z,16.10
2018-05-11T10:00:26.201Z,16.70
2018-05-11T10:02:53.769Z,17.40
2018-05-11T10:05:21.260Z,17.80
2018-05-11T10:07:49.202Z,19.20
2018-05-11T10:10:17.377Z,20.40
2018-05-11T10:12:44.898Z,19.60
2018-05-11T10:15:12.460Z,19.20
2018-05-11T10:17:40.779Z,20.60
2018-05-11T10:20:08.246Z,20.60
2018-05-11T10:22:35.843Z,20.50
2018-05-11T10:25:03.535Z,20.50
2018-05-11T10:27:31.037Z,19.90
2018-05-11T10:29:58.690Z,19.20
2018-05-11T10:32:26.346Z,19.50
2018-05-11T10:34:53.791Z,19.50
2018-05-11T10:37:21.962Z,19.80
2018-05-11T10:39:49.530Z,19.10
2018-05-11T10:42:16.942Z,19.70
2018-05-11T10:44:44.510Z,19.90
2018-05-11T10:47:12.016Z,19.80
2018-05-11T10:49:39.699Z,20.00
2018-05-11T10:52:07.258Z,19.70
2018-05-11T10:54:34.906Z,18.60
2018-05-11T10:57:02.441Z,18.20
2018-05-11T10:59:30.098Z,18.20
2018-05-11T11:01:57.674Z,19.10
2018-05-11T11:04:25.133Z,19.40
2018-05-11T11:06:52.682Z,19.50
2018-05-11T11:09:20.194Z,19.10
2018-05-11T11:11:49.322Z,19.20
2018-05-11T11:14:16.757Z,19.20
2018-05-11T11:16:44.321Z,20.00
2018-05-11T11:19:12.433Z,19.70
2018-05-11T11:21:39.906Z,19.90
2018-05-11T11:24:07.436Z,20.10
2018-05-11T11:26:34.898Z,20.10
2018-05-11T11:29:02.360Z,20.40
2018-05-11T11:31:29.909Z,21.40
2018-05-11T11:33:57.407Z,22.10
2018-05-11T11:36:24.960Z,21.60
2018-05-11T11:38:52.445Z,21.10
2018-05-11T11:41:19.948Z,20.40
2018-05-11T11:43:48.291Z,20.20
2018-05-11T11:46:15.947Z,20.20
2018-05-11T11:48:43.617Z,20.80
2018-05-11T11:51:11.176Z,20.30
2018-05-11T11:53:38.771Z,20.50
2018-05-11T11:56:06.339Z,21.10
2018-05-11T11:58:34.345Z,21.90
2018-05-11T12:01:01.821Z,21.20
2018-05-11T12:03:29.325Z,19.90
2018-05-11T12:05:57.081Z,18.70
2018-05-11T12:08:24.623Z,19.60
2018-05-11T12:10:52.242Z,21.50
2018-05-11T12:13:19.703Z,23.20
2018-05-11T12:15:47.315Z,23.60
2018-05-11T12:18:18.668Z,23.90
2018-05-11T12:20:46.201Z,22.50
2018-05-11T12:23:14.483Z,22.10
2018-05-11T12:25:42.785Z,22.00
2018-05-11T12:28:11.080Z,21.40
2018-05-11T12:30:38.586Z,21.40
2018-05-11T12:33:06.112Z,21.10
2018-05-11T12:35:33.582Z,21.80
2018-05-11T12:38:01.947Z,21.80
2018-05-11T12:40:29.494Z,22.20
2018-05-11T12:42:57.807Z,23.90
2018-05-11T12:45:25.328Z,23.90
2018-05-11T12:47:53.651Z,22.40
2018-05-11T12:50:21.175Z,22.40
2018-05-11T12:52:49.608Z,22.10
2018-05-11T12:55:18.728Z,22.40
2018-05-11T12:57:46.237Z,22.40
2018-05-11T13:00:13.767Z,23.30
2018-05-11T13:02:41.213Z,23.50
2018-05-11T13:05:08.914Z,24.00
2018-05-11T13:07:37.219Z,24.70
2018-05-11T13:10:04.736Z,24.60
2018-05-11T13:12:32.250Z,24.10
2018-05-11T13:14:59.792Z,23.20
2018-05-11T13:17:27.289Z,23.20
2018-05-11T13:19:54.762Z,23.00
2018-05-11T13:22:22.924Z,22.20
2018-05-11T13:24:50.482Z,21.90
2018-05-11T13:27:18.047Z,22.00
2018-05-11T13:29:45.521Z,22.60
2018-05-11T13:32:13.019Z,23.90
2018-05-11T13:34:40.558Z,24.80
2018-05-11T13:37:08.164Z,24.40
2018-05-11T13:39:35.665Z,24.10
2018-05-11T13:42:03.218Z,22.60
2018-05-11T13:44:30.625Z,21.00
2018-05-11T13:46:58.086Z,19.80
2018-05-11T13:49:25.590Z,19.90
2018-05-11T13:51:54.526Z,19.90
2018-05-11T13:54:22.844Z,20.30
2018-05-11T13:56:50.302Z,20.30
2018-05-11T13:59:17.846Z,21.00
2018-05-11T14:01:45.348Z,21.30
2018-05-11T14:04:12.870Z,21.20
2018-05-11T14:06:40.434Z,20.80
2018-05-11T14:09:08.039Z,19.80
2018-05-11T14:11:35.550Z,19.70
2018-05-11T14:14:03.085Z,19.60
2018-05-11T14:16:31.566Z,19.40
2018-05-11T14:18:59.110Z,19.40
2018-05-11T14:21:26.743Z,19.60
2018-05-11T14:23:54.671Z,19.90
2018-05-11T14:26:22.253Z,19.80
2018-05-11T14:28:49.756Z,19.90
2018-05-11T14:31:17.275Z,20.30
2018-05-11T14:33:44.817Z,20.30
2018-05-11T14:36:13.186Z,20.40
2018-05-11T14:38:40.678Z,20.40
2018-05-11T14:41:08.954Z,20.50
2018-05-11T14:43:36.540Z,20.50
2018-05-11T14:46:04.998Z,20.40
2018-05-11T14:48:33.211Z,19.90
2018-05-11T14:51:00.686Z,19.90
2018-05-11T14:53:28.258Z,19.60
2018-05-11T14:55:55.799Z,19.50
2018-05-11T14:58:24.359Z,19.50
2018-05-11T15:00:51.802Z,19.40
2018-05-11T15:03:19.335Z,19.20
2018-05-11T15:05:46.810Z,19.20
2018-05-11T15:08:14.310Z,19.20
2018-05-11T15:10:42.551Z,19.30
2018-05-11T15:13:10.138Z,19.20
2018-05-11T15:15:38.427Z,19.30
2018-05-11T15:18:05.890Z,19.50
2018-05-11T15:20:33.429Z,19.70
2018-05-11T15:23:01.037Z,19.30
2018-05-11T15:25:28.822Z,19.30
2018-05-11T15:27:56.337Z,19.30
2018-05-11T15:30:23.942Z,19.50
2018-05-11T15:32:51.475Z,19.30
2018-05-11T15:35:18.976Z,19.30
2018-05-11T15:37:46.483Z,19.40
2018-05-11T15:40:13.966Z,19.40
2018-05-11T15:42:41.486Z,19.20
2018-05-11T15:45:09.872Z,19.10
2018-05-11T15:47:38.054Z,19.00
2018-05-11T15:50:05.895Z,18.90
2018-05-11T15:52:34.404Z,18.80
2018-05-11T15:55:01.988Z,18.70
2018-05-11T15:57:30.202Z,18.80
2018-05-11T15:59:58.552Z,18.90
2018-05-11T16:02:26.040Z,18.90
2018-05-11T16:04:54.311Z,19.10
2018-05-11T16:07:21.795Z,19.10
2018-05-11T16:09:50.181Z,19.20
2018-05-11T16:12:18.416Z,19.40
2018-05-11T16:14:45.918Z,19.40
2018-05-11T16:17:14.166Z,19.20
2018-05-11T16:19:42.528Z,19.20
2018-05-11T16:22:10.119Z,19.40
2018-05-11T16:24:37.714Z,19.50
2018-05-11T16:27:06.005Z,19.20
2018-05-11T16:29:33.474Z,19.10
2018-05-11T16:32:00.970Z,19.10
2018-05-11T16:34:28.462Z,19.10
2018-05-11T16:36:55.938Z,19.00
2018-05-11T16:39:24.221Z,19.20
2018-05-11T16:41:52.448Z,19.30
2018-05-11T16:44:19.998Z,19.20
2018-05-11T16:46:47.505Z,19.20
2018-05-11T16:49:15.019Z,19.20
2018-05-11T16:51:42.484Z,19.20
2018-05-11T16:54:10.016Z,19.20
2018-05-11T16:56:38.313Z,19.00
2018-05-11T16:59:06.564Z,19.00
2018-05-11T17:01:34.091Z,19.00
2018-05-11T17:04:02.147Z,19.00
2018-05-11T17:06:29.679Z,18.90
2018-05-11T17:08:57.916Z,18.80
2018-05-11T17:11:25.381Z,18.80
2018-05-11T17:13:52.955Z,19.10
2018-05-11T17:16:20.770Z,19.00
2018-05-11T17:18:48.433Z,19.10
2018-05-11T17:21:16.191Z,19.10
2018-05-11T17:23:43.663Z,19.10
2018-05-11T17:26:11.156Z,19.20
2018-05-11T17:28:38.784Z,19.30
2018-05-11T17:31:06.383Z,19.30
2018-05-11T17:33:34.658Z,19.20
2018-05-11T17:36:02.585Z,19.20
2018-05-11T17:38:30.150Z,19.00
2018-05-11T17:40:57.875Z,19.00
2018-05-11T17:43:25.399Z,18.90
2018-05-11T17:45:52.998Z,18.80
2018-05-11T17:48:21.730Z,18.50
2018-05-11T17:50:49.921Z,18.50
2018-05-11T17:53:17.506Z,18.50
2018-05-11T17:55:45.714Z,18.40
2018-05-11T17:58:13.330Z,18.40
2018-05-11T18:00:40.832Z,18.40
2018-05-11T18:03:08.451Z,18.40
2018-05-11T18:05:35.876Z,18.30
2018-05-11T18:08:03.364Z,18.30
2018-05-11T18:10:30.868Z,18.20
2018-05-11T18:12:58.713Z,18.20
2018-05-11T18:15:26.129Z,18.20
2018-05-11T18:17:53.622Z,18.30
2018-05-11T18:20:21.132Z,18.30
2018-05-11T18:22:49.522Z,18.20
2018-05-11T18:25:18.269Z,18.20
2018-05-11T18:27:45.847Z,18.20
2018-05-11T18:30:13.330Z,18.20
2018-05-11T18:32:41.677Z,18.10
2018-05-11T18:35:09.204Z,18.10
2018-05-11T18:37:36.728Z,18.10
2018-05-11T18:40:04.271Z,18.00
2018-05-11T18:42:32.496Z,18.00
2018-05-11T18:44:59.960Z,18.00
2018-05-11T18:47:28.352Z,17.90
2018-05-11T18:49:55.863Z,17.90
2018-05-11T18:52:23.426Z,17.90
2018-05-11T18:54:50.910Z,17.80
2018-05-11T18:57:18.422Z,17.80
2018-05-11T18:59:46.641Z,17.70
2018-05-11T19:02:14.119Z,17.70
2018-05-11T19:04:42.424Z,17.60
2018-05-11T19:07:10.144Z,17.60
2018-05-11T19:09:37.629Z,17.60
2018-05-11T19:12:05.118Z,17.60
2018-05-11T19:14:32.662Z,17.60
2018-05-11T19:17:00.167Z,17.50
2018-05-11T19:19:27.726Z,17.50
2018-05-11T19:21:55.284Z,17.40
2018-05-11T19:24:22.750Z,17.40
2018-05-11T19:26:53.241Z,17.40
2018-05-11T19:29:20.715Z,17.40
2018-05-11T19:31:48.987Z,17.30
2018-05-11T19:34:17.279Z,17.30
2018-05-11T19:36:44.734Z,17.30
2018-05-11T19:39:13.296Z,17.30
2018-05-11T19:41:40.758Z,17.30
2018-05-11T19:44:08.243Z,17.30
2018-05-11T19:46:35.768Z,17.30
2018-05-11T19:49:03.228Z,17.30
2018-05-11T19:51:30.698Z,17.30
2018-05-11T19:53:58.206Z,17.30
2018-05-11T19:56:26.556Z,17.20
2018-05-11T19:58:54.057Z,17.20
2018-05-11T20:01:22.326Z,17.20
2018-05-11T20:03:49.818Z,17.20
2018-05-11T20:06:17.339Z,17.20
2018-05-11T20:08:44.792Z,17.20
2018-05-11T20:11:12.292Z,17.10
2018-05-11T20:13:40.615Z,17.10
2018-05-11T20:16:08.134Z,17.00
2018-05-11T20:18:35.671Z,17.00
2018-05-11T20:21:03.149Z,17.00
2018-05-11T20:23:31.310Z,17.00
2018-05-11T20:25:58.797Z,17.00
2018-05-11T20:28:26.286Z,17.00
2018-05-11T20:30:53.754Z,16.90
2018-05-11T20:33:21.254Z,16.90
2018-05-11T20:35:48.743Z,16.90
2018-05-11T20:38:16.227Z,16.90
2018-05-11T20:40:44.320Z,16.90
2018-05-11T20:43:11.838Z,16.90
2018-05-11T20:45:39.312Z,16.90
2018-05-11T20:48:06.800Z,16.90
2018-05-11T20:50:34.314Z,16.90
2018-05-11T20:53:01.843Z,16.80
2018-05-11T20:55:29.317Z,16.80
2018-05-11T20:57:56.886Z,16.80
2018-05-11T21:00:24.366Z,16.80
2018-05-11T21:02:51.856Z,16.70
2018-05-11T21:05:19.418Z,16.70
2018-05-11T21:07:47.685Z,16.60
2018-05-11T21:10:15.237Z,16.60
2018-05-11T21:12:42.732Z,16.60
2018-05-11T21:15:10.208Z,16.60
2018-05-11T21:17:37.732Z,16.50
2018-05-11T21:20:05.238Z,16.50
2018-05-11T21:22:33.481Z,16.40
2018-05-11T21:25:01.842Z,16.40
2018-05-11T21:27:29.376Z,16.30
2018-05-11T21:29:56.932Z,16.40
2018-05-11T21:32:24.534Z,16.30
2018-05-11T21:34:52.125Z,16.30
2018-05-11T21:37:19.582Z,16.20
2018-05-11T21:39:47.320Z,16.20
2018-05-11T21:42:14.910Z,16.20
2018-05-11T21:44:42.471Z,16.20
2018-05-11T21:47:09.929Z,16.10
2018-05-11T21:49:37.430Z,16.10
2018-05-11T21:52:05.863Z,16.00
2018-05-11T21:54:33.374Z,16.00
2018-05-11T21:57:00.913Z,16.00
2018-05-11T21:59:28.431Z,16.00
2018-05-11T22:01:55.918Z,15.90
2018-05-11T22:04:23.593Z,15.90
2018-05-11T22:06:51.268Z,15.80
2018-05-11T22:09:18.780Z,15.80
2018-05-11T22:11:46.553Z,15.70
2018-05-11T22:14:14.058Z,15.60
2018-05-11T22:16:41.532Z,15.60
2018-05-11T22:19:09.071Z,15.50
2018-05-11T22:21:36.724Z,15.50
2018-05-11T22:24:05.009Z,15.40
2018-05-11T22:26:32.514Z,15.30
2018-05-11T22:29:00.083Z,15.30
2018-05-11T22:31:27.741Z,15.40
2018-05-11T22:33:55.220Z,15.30
2018-05-11T22:36:23.470Z,15.30
2018-05-11T22:38:50.983Z,15.30
2018-05-11T22:41:18.530Z,15.20
2018-05-11T22:43:45.987Z,15.20
2018-05-11T22:46:13.476Z,15.20
2018-05-11T22:48:40.998Z,15.10
2018-05-11T22:51:08.523Z,15.10
2018-05-11T22:53:36.324Z,15.10
2018-05-11T22:56:04.541Z,15.10
2018-05-11T22:58:33.444Z,15.00
2018-05-11T23:01:00.882Z,15.00
2018-05-11T23:03:36.348Z,14.90
2018-05-11T23:06:03.869Z,14.90
2018-05-11T23:08:31.423Z,14.90
2018-05-11T23:10:58.978Z,14.90
2018-05-11T23:13:26.445Z,14.80
2018-05-11T23:15:54.720Z,14.70
2018-05-11T23:18:22.241Z,14.70
2018-05-11T23:20:50.482Z,14.60
2018-05-11T23:23:17.983Z,14.60
2018-05-11T23:25:45.482Z,14.60
2018-05-11T23:28:12.981Z,14.60
2018-05-11T23:30:40.540Z,14.60
2018-05-11T23:33:08.059Z,14.50
2018-05-11T23:35:35.609Z,14.50
2018-05-11T23:38:03.080Z,14.50
2018-05-11T23:40:30.590Z,14.50
2018-05-11T23:42:58.132Z,14.50
2018-05-11T23:45:25.614Z,14.50
2018-05-11T23:47:53.120Z,14.50
2018-05-11T23:50:20.569Z,14.50
2018-05-11T23:52:48.829Z,14.50
2018-05-11T23:55:16.343Z,14.50
2018-05-11T23:57:44.208Z,14.50
